Leadville, CO

5:37 PM MDT on May 22, 2017 (GMT -0600)
Homestake | | Change Station

Elev 10180 ft 39.26 °N, 106.30 °W | Updated 1 second ago

Overcast
Overcast
39.4 °F
Feels Like 39 °F
N
2.9
Wind Variable Wind from NNW
Gusts 4.9 mph

Today
High -- | Low -- °F
--% Chance of Precip.
Yesterday
High -- | Low -- °F
Precip. -- in
Pressure 29.99 in
Visibility 10.0 miles
Clouds Scattered Clouds 3700 ft
Mostly Cloudy 4400 ft
Overcast 7000 ft
Windchill 39 °F
Dew Point 31 °F
Humidity 72%
Rainfall 0.02 in
Snow Depth Not available.
5:45 AM 8:18 PM
Waning Crescent, 12% visible
METAR KLXV 222253Z AUTO 33017G28KT 10SM SCT037 BKN044 OVC070 06/M03 A3027 RMK AO2 PK WND 34028/2250 RAE00 SLP155 P0000 T00561033
Pressure 29.99 in
Visibility 10.0 miles
Clouds Scattered Clouds 3700 ft
Mostly Cloudy 4400 ft
Overcast 7000 ft
Windchill 39 °F
Dew Point 31 °F
Humidity 72%
Rainfall 0.02 in
Snow Depth Not available.
5:45 AM 8:18 PM
Waning Crescent, 12% visible
METAR KLXV 222253Z AUTO 33017G28KT 10SM SCT037 BKN044 OVC070 06/M03 A3027 RMK AO2 PK WND 34028/2250 RAE00 SLP155 P0000 T00561033

Get Severe Weather Alerts

Thanks for signing up!

Be on the lookout for a verification email in your inbox.

You'll start receiving the daily forecast at 6 AM.

×

10-Day Weather Forecast

Almanac

Astronomy

May. 22, 2017 Rise Set
Actual Time
Civil Twilight
Nautical Twilight
Astronomical Twilight
Moon
Length of Visible Light
Length of Day
Tomorrow will be .
, % of the Moon is Illuminated

Today's Extremes

State Highs State Lows

Community

WunderPhotos

Category 6

Welcome to Category 6. This is the collective home for Weather Underground's featured writeups by Dr. Jeff Masters (right), Bob Henson (left), Chris Burt, and other regular contributors.

Nearby

Air Quality

  Air Quality AQ Index Pollutant
Not available.

Snow Depth

Station Depth Elevation

Earthquake Activity

City Distance Mag. Time & Date
Minimum magnitude displayed is 2.5.

Coastal Water Temperatures

Place Temperature

Stations

Nearby Weather Stations

Station Location Temp. Windchill Dew Point Humidity Wind Precip. Elev Updated Type
                   

Watches & Warnings

There are currently no watches in effect.